No particular awareness of the weather is required.    There are no Weather-warnings


Meteo18 Weather Cam more information Meteo18 Weather Cam


Thunder radar more information blitzortung!


Rain radar more information rain snow radar


Visit our other weather sites:

Template documentation
and downloads

And another site



Weather Underground History page Text

Daily Summary for February 24, 2018 Units:  Metric    English   Both
« Previous Day
Next Day »
Daily Weekly Monthly Yearly Custom
  High: Low: Average:
Temperature: -17.8 °C -18.9 °C -17.3 °C
Dew Point: -17.8 °C -20.9 °C -19.6 °C
Humidity: Humidity % 64 % 74 %
Wind Speed: 0 km/h 0 km/h 13.2 km/h
Wind Gust: 0 km/h - -
Wind:- - ENE
Pressure: 0 hPa 34256.2 hPa -
Precipitation: 0 mm    
Historical Graphs
 
 
Tabular Data for February 24, 2018
Time Temperature Dew Point Pressure Wind Wind Speed Wind Gust Humidity Rainfall Rate (Hourly)
-17.8 °C -17.8 °C 0 hPa Calm     Humidity % 0 mm
00:01 -17.4 °C -19.3 °C 34279.9 hPa ENE 7.6 km/h 12.9 km/h 78 % 0 mm
00:07 -17.4 °C -19.3 °C 34269.7 hPa ENE 7.6 km/h 12.9 km/h 78 % 0 mm
00:13 -17.4 °C -19.3 °C 34269.7 hPa East 7.6 km/h 10.3 km/h 78 % 0 mm
00:19 -17.5 °C -19.4 °C 34269.7 hPa NE 2.3 km/h 18.2 km/h 78 % 0 mm
00:25 -17.5 °C -19.4 °C 34269.7 hPa ENE 5.1 km/h 7.7 km/h 78 % 0 mm
00:31 -17.6 °C -19.4 °C 34269.7 hPa ENE 2.3 km/h 15.6 km/h 78 % 0 mm
00:37 -17.6 °C -19.4 °C 34269.7 hPa NE 5.1 km/h 15.6 km/h 78 % 0 mm
00:43 -17.6 °C -19.4 °C 34269.7 hPa ENE 17.9 km/h 23.3 km/h 78 % 0 mm
00:49 -17.6 °C -19.4 °C 34256.2 hPa ENE 10.3 km/h 12.9 km/h 78 % 0 mm
00:55 -17.6 °C -19.6 °C 34256.2 hPa East 5.1 km/h 20.8 km/h 76 % 0 mm
01:01 -17.5 °C -19.7 °C 34256.2 hPa ENE 23 km/h 23.3 km/h 75 % 0 mm
01:07 -17.6 °C -19.8 °C 34256.2 hPa East 12.7 km/h 18.2 km/h 74 % 0 mm
01:13 -17.6 °C -19.8 °C 34256.2 hPa ENE 17.9 km/h 25.9 km/h 74 % 0 mm
01:19 -17.6 °C -19.8 °C 34256.2 hPa ENE 10.3 km/h 23.3 km/h 74 % 0 mm
01:25 -17.6 °C -19.8 °C 34269.7 hPa East 7.6 km/h 15.6 km/h 74 % 0 mm
01:31 -17.6 °C -19.8 °C 34269.7 hPa ENE 12.7 km/h 20.8 km/h 74 % 0 mm
01:37 -17.6 °C -19.9 °C 34269.7 hPa ENE 12.7 km/h 18.2 km/h 74 % 0 mm
01:43 -17.6 °C -19.9 °C 34269.7 hPa ENE 15.6 km/h 23.3 km/h 74 % 0 mm
01:49 -17.6 °C -19.9 °C 34269.7 hPa East 10.3 km/h 23.3 km/h 74 % 0 mm
01:55 -17.7 °C -19.9 °C 34269.7 hPa East 20.9 km/h 25.9 km/h 74 % 0 mm
02:01 -17.7 °C -19.9 °C 34269.7 hPa ENE 7.6 km/h 23.3 km/h 74 % 0 mm
02:07 -17.7 °C -19.9 °C 34279.9 hPa ENE 17.9 km/h 23.3 km/h 74 % 0 mm
02:13 -17.7 °C -19.8 °C 34269.7 hPa ENE 10.3 km/h 15.6 km/h 75 % 0 mm
02:19 -17.7 °C -19.9 °C 34269.7 hPa ENE 10.3 km/h 15.6 km/h 75 % 0 mm
02:25 -17.7 °C -20 °C 34269.7 hPa ENE 10.3 km/h 20.8 km/h 74 % 0 mm
02:31 -17.7 °C -20 °C 34269.7 hPa ENE 12.7 km/h 15.6 km/h 74 % 0 mm
02:37 -17.8 °C -20.1 °C 34269.7 hPa ENE 10.3 km/h 20.8 km/h 74 % 0 mm
02:43 -17.8 °C -19.9 °C 34256.2 hPa ENE 12.7 km/h 18.2 km/h 75 % 0 mm
02:49 -17.8 °C -19.9 °C 34256.2 hPa East 2.3 km/h 12.9 km/h 76 % 0 mm
02:55 -17.9 °C -19.8 °C 34269.7 hPa NE 5.1 km/h 10.3 km/h 77 % 0 mm
03:01 -17.9 °C -19.9 °C 34269.7 hPa ENE 15.6 km/h 20.8 km/h 76 % 0 mm
03:07 -17.9 °C -20.1 °C 34269.7 hPa ENE 20.9 km/h 25.9 km/h 75 % 0 mm
03:13 -17.9 °C -19.9 °C 34269.7 hPa NE 5.1 km/h 23.3 km/h 76 % 0 mm
03:19 -17.9 °C -19.9 °C 34269.7 hPa ENE 5.1 km/h 12.9 km/h 77 % 0 mm
03:25 -17.9 °C -19.9 °C 34269.7 hPa ENE 12.7 km/h 12.9 km/h 77 % 0 mm
03:31 -17.9 °C -19.9 °C 34269.7 hPa ENE 7.6 km/h 12.9 km/h 77 % 0 mm
03:37 -18 °C -19.9 °C 34269.7 hPa ENE 7.6 km/h 12.9 km/h 77 % 0 mm
03:43 -18.1 °C -20 °C 34269.7 hPa NE 2.3 km/h 5.1 km/h 78 % 0 mm
03:49 -18.2 °C -20.1 °C 34269.7 hPa NE 5.1 km/h 10.3 km/h 78 % 0 mm
03:55 -18.2 °C -20.1 °C 34269.7 hPa ENE 10.3 km/h 10.3 km/h 78 % 0 mm
04:01 -18.2 °C -20.1 °C 34269.7 hPa ENE 2.3 km/h 7.7 km/h 78 % 0 mm
04:07 -18.2 °C -20 °C 34269.7 hPa NE 2.3 km/h 7.7 km/h 79 % 0 mm
04:13 -18.3 °C -20.1 °C 34269.7 hPa NE 10.3 km/h 12.9 km/h 79 % 0 mm
04:19 -18.3 °C -20.1 °C 34269.7 hPa NE 5.1 km/h 12.9 km/h 79 % 0 mm
04:25 -18.4 °C -20.2 °C 34256.2 hPa NE 10.3 km/h 12.9 km/h 79 % 0 mm
04:31 -18.4 °C -20.2 °C 34269.7 hPa North 5.1 km/h 12.9 km/h 79 % 0 mm
04:37 -18.4 °C -20.1 °C 34269.7 hPa NNE 2.3 km/h 5.1 km/h 80 % 0 mm
04:43 -18.4 °C -20.1 °C 34269.7 hPa NE 5.1 km/h 7.7 km/h 80 % 0 mm
04:49 -18.5 °C -20.2 °C 34269.7 hPa NNE 7.6 km/h 10.3 km/h 80 % 0 mm
04:55 -18.4 °C -20.1 °C 34269.7 hPa NE 7.6 km/h 15.6 km/h 80 % 0 mm
05:01 -18.5 °C -20.2 °C 34269.7 hPa NE 12.7 km/h 12.9 km/h 80 % 0 mm
05:07 -18.5 °C -20.2 °C 34269.7 hPa NE 7.6 km/h 12.9 km/h 80 % 0 mm
05:13 -18.5 °C -20.2 °C 34269.7 hPa NE 7.6 km/h 12.9 km/h 80 % 0 mm
05:19 -18.5 °C -20.2 °C 34256.2 hPa NE 10.3 km/h 15.6 km/h 80 % 0 mm
05:25 -18.6 °C -20.2 °C 34256.2 hPa NE 7.6 km/h 10.3 km/h 80 % 0 mm
05:31 -18.6 °C -20.2 °C 34256.2 hPa NNE 10.3 km/h 10.3 km/h 80 % 0 mm
05:37 -18.6 °C -20.2 °C 34256.2 hPa NNE 7.6 km/h 10.3 km/h 80 % 0 mm
05:43 -18.6 °C -20.2 °C 34256.2 hPa NW 2.3 km/h 12.9 km/h 81 % 0 mm
05:49 -18.7 °C -20.2 °C 34256.2 hPa NNE 7.6 km/h 18.2 km/h 82 % 0 mm
05:56 -18.6 °C -20.1 °C 34256.2 hPa NNE 10.3 km/h 15.6 km/h 81 % 0 mm
06:02 -18.6 °C -20.1 °C 34256.2 hPa NNE 12.7 km/h 20.8 km/h 81 % 0 mm
06:08 -18.6 °C -20.2 °C 34256.2 hPa NE 7.6 km/h 15.6 km/h 81 % 0 mm
06:14 -18.5 °C -20.1 °C 34256.2 hPa NE 15.6 km/h 23.3 km/h 81 % 0 mm
06:20 -18.4 °C -20.1 °C 34256.2 hPa NE 15.6 km/h 23.3 km/h 80 % 0 mm
06:26 -18.4 °C -20.1 °C 34256.2 hPa NE 10.3 km/h 23.3 km/h 80 % 0 mm
06:32 -18.4 °C -20.1 °C 34256.2 hPa NNE 26.2 km/h 28.5 km/h 80 % 0 mm
06:38 -18.4 °C -20.1 °C 34256.2 hPa NE 23 km/h 25.9 km/h 80 % 0 mm
06:44 -18.5 °C -20.2 °C 34269.7 hPa NNE 10.3 km/h 18.2 km/h 80 % 0 mm
06:50 -18.6 °C -20.1 °C 34269.7 hPa NNE 12.7 km/h 20.8 km/h 81 % 0 mm
06:56 -18.6 °C -20.1 °C 34269.7 hPa Calm   20.8 km/h 81 % 0 mm
07:02 -18.7 °C -20.2 °C 34269.7 hPa NE 20.9 km/h 20.9 km/h 82 % 0 mm
07:08 -18.7 °C -20.2 °C 34269.7 hPa North 10.3 km/h 18.2 km/h 82 % 0 mm
07:14 -18.7 °C -20.2 °C 34269.7 hPa NW 10.3 km/h 15.6 km/h 82 % 0 mm
07:20 -18.8 °C -20.2 °C 34269.7 hPa NNE 5.1 km/h 15.6 km/h 83 % 0 mm
07:26 -18.8 °C -20.2 °C 34269.7 hPa NE 7.6 km/h 15.6 km/h 83 % 0 mm
07:32 -18.8 °C -20.2 °C 34269.7 hPa NNE 15.6 km/h 25.9 km/h 83 % 0 mm
07:38 -18.8 °C -20.2 °C 34269.7 hPa NNE 2.3 km/h 12.9 km/h 83 % 0 mm
07:44 -18.8 °C -20.2 °C 34269.7 hPa NNW 2.3 km/h 10.3 km/h 83 % 0 mm
07:50 -18.9 °C -20.2 °C 34269.7 hPa NE 2.3 km/h 15.6 km/h 84 % 0 mm
07:56 -18.8 °C -20.1 °C 34279.9 hPa NE 12.7 km/h 18.2 km/h 84 % 0 mm
08:02 -18.9 °C -20.2 °C 34279.9 hPa NNE 5.1 km/h 18.2 km/h 84 % 0 mm
08:08 -18.9 °C -20.2 °C 34269.7 hPa NE 12.7 km/h 20.8 km/h 84 % 0 mm
08:14 -18.8 °C -20.1 °C 34279.9 hPa NE 10.3 km/h 12.9 km/h 84 % 0 mm
08:20 -18.8 °C -20.1 °C 34279.9 hPa NNE 7.6 km/h 15.6 km/h 84 % 0 mm
08:26 -18.8 °C -20.1 °C 34279.9 hPa NNE 15.6 km/h 18.2 km/h 84 % 0 mm
08:32 -18.8 °C -20.2 °C 34293.4 hPa NNE 12.7 km/h 25.9 km/h 83 % 0 mm
08:38 -18.7 °C -20.1 °C 34293.4 hPa NE 23 km/h 25.9 km/h 83 % 0 mm
08:44 -18.7 °C -20.2 °C 34293.4 hPa NE 12.7 km/h 28.5 km/h 82 % 0 mm
08:50 -18.6 °C -20.1 °C 34293.4 hPa NE 26.2 km/h 31.1 km/h 82 % 0 mm
08:56 -18.6 °C -20.1 °C 34293.4 hPa North 5.1 km/h 28.5 km/h 81 % 0 mm
09:02 -18.6 °C -20.1 °C 34293.4 hPa NNE 5.1 km/h 20.8 km/h 82 % 0 mm
09:08 -18.6 °C -20.1 °C 34293.4 hPa NE 10.3 km/h 25.9 km/h 81 % 0 mm
09:14 -18.5 °C -20.2 °C 34293.4 hPa NNE 23 km/h 25.9 km/h 80 % 0 mm
09:20 -18.5 °C -20.2 °C 34293.4 hPa NNE 15.6 km/h 33.6 km/h 80 % 0 mm
09:26 -18.4 °C -20.1 °C 34279.9 hPa NE 17.9 km/h 33.6 km/h 80 % 0 mm
09:32 -18.4 °C -20.2 °C 34293.4 hPa NE 26.2 km/h 41.4 km/h 79 % 0 mm
09:38 -18.4 °C -20.2 °C 34293.4 hPa NE 23 km/h 28.5 km/h 79 % 0 mm
09:44 -18.3 °C -20.1 °C 34293.4 hPa NE 15.6 km/h 36.2 km/h 79 % 0 mm
09:50 -18.2 °C -20.1 °C 34279.9 hPa NNE 26.2 km/h 33.6 km/h 78 % 0 mm
09:56 -18.2 °C -20.1 °C 34279.9 hPa ENE 41.7 km/h 41.7 km/h 78 % 0 mm
09:58 -18.2 °C -20.1 °C 34279.9 hPa NE 23 km/h 33.6 km/h 78 % 0 mm
10:02 -18.2 °C -20.1 °C 34279.9 hPa NNE 17.9 km/h 38.8 km/h 77 % 0 mm
10:08 -18.2 °C -20.1 °C 34279.9 hPa NE 17.9 km/h 44.1 km/h 77 % 0 mm
10:14 -18.1 °C -20 °C 34279.9 hPa NNE 23 km/h 33.6 km/h 77 % 0 mm
10:20 -17.9 °C -19.9 °C 34279.9 hPa NE 20.9 km/h 28.5 km/h 77 % 0 mm
10:26 -17.9 °C -20 °C 34279.9 hPa NE 12.7 km/h 33.6 km/h 76 % 0 mm
10:32 -17.8 °C -19.9 °C 34279.9 hPa East 10.3 km/h 28.5 km/h 76 % 0 mm
10:38 -17.8 °C -19.8 °C 34279.9 hPa NE 12.7 km/h 28.5 km/h 76 % 0 mm
10:44 -17.7 °C -19.7 °C 34279.9 hPa NE 20.9 km/h 23.3 km/h 76 % 0 mm
10:50 -17.7 °C -19.7 °C 34279.9 hPa NE 23 km/h 33.6 km/h 76 % 0 mm
10:56 -17.6 °C -19.7 °C 34279.9 hPa ENE 10.3 km/h 33.6 km/h 76 % 0 mm
11:02 -17.6 °C -19.8 °C 34279.9 hPa ENE 15.6 km/h 36.2 km/h 75 % 0 mm
11:08 -17.6 °C -19.7 °C 34279.9 hPa NE 26.2 km/h 38.8 km/h 75 % 0 mm
11:14 -17.4 °C -19.6 °C 34279.9 hPa NE 12.7 km/h 28.5 km/h 75 % 0 mm
11:20 -17.4 °C -19.6 °C 34279.9 hPa NE 26.2 km/h 33.6 km/h 75 % 0 mm
11:26 -17.3 °C -19.5 °C 34279.9 hPa NE 23 km/h 28.5 km/h 75 % 0 mm
11:32 -17.4 °C -19.8 °C 34279.9 hPa NE 17.9 km/h 31.1 km/h 73 % 0 mm
11:38 -17.3 °C -19.4 °C 34293.4 hPa ENE 17.9 km/h 18.2 km/h 75 % 0 mm
11:44 -17.3 °C -19.6 °C 34293.4 hPa ENE 2.3 km/h 18.2 km/h 74 % 0 mm
11:50 -17.1 °C -19.3 °C 34293.4 hPa ENE 5.1 km/h 18.2 km/h 74 % 0 mm
11:56 -17 °C -19.4 °C 34293.4 hPa ENE 7.6 km/h 20.8 km/h 73 % 0 mm
12:02 -17.1 °C -19.3 °C 34293.4 hPa NE 2.3 km/h 33.6 km/h 74 % 0 mm
12:08 -16.9 °C -19.3 °C 34293.4 hPa ENE 7.6 km/h 18.2 km/h 73 % 0 mm
12:14 -16.9 °C -19.3 °C 34293.4 hPa ENE 12.7 km/h 23.3 km/h 73 % 0 mm
12:20 -16.8 °C -19.3 °C 34293.4 hPa NE 5.1 km/h 15.6 km/h 72 % 0 mm
12:26 -16.6 °C -18.9 °C 34293.4 hPa NNE 7.6 km/h 18.2 km/h 74 % 0 mm
12:32 -16.6 °C -18.9 °C 34293.4 hPa NE 5.1 km/h 18.2 km/h 73 % 0 mm
12:38 -16.3 °C -18.8 °C 34293.4 hPa ENE 15.6 km/h 25.9 km/h 72 % 0 mm
12:44 -16.3 °C -19.1 °C 34293.4 hPa ESE 10.3 km/h 25.9 km/h 70 % 0 mm
12:50 -16.3 °C -18.9 °C 34293.4 hPa ENE 26.2 km/h 28.5 km/h 71 % 0 mm
12:56 -16.4 °C -19.2 °C 34293.4 hPa East 15.6 km/h 28.5 km/h 70 % 0 mm
13:02 -16.3 °C -19 °C 34293.4 hPa NNE 12.7 km/h 38.8 km/h 70 % 0 mm
13:08 -16.3 °C -18.9 °C 34293.4 hPa ENE 15.6 km/h 33.6 km/h 71 % 0 mm
13:14 -16.2 °C -19.1 °C 34279.9 hPa NE 7.6 km/h 28.5 km/h 69 % 0 mm
13:20 -16.3 °C -19 °C 34279.9 hPa NE 12.7 km/h 20.8 km/h 70 % 0 mm
13:26 -16.1 °C -18.7 °C 34279.9 hPa NE 10.3 km/h 23.3 km/h 71 % 0 mm
13:32 -16.1 °C -18.9 °C 34279.9 hPa ENE 26.2 km/h 31.1 km/h 69 % 0 mm
13:38 -16.3 °C -19 °C 34279.9 hPa NNE 12.7 km/h 28.5 km/h 70 % 0 mm
13:44 -16.2 °C -18.9 °C 34279.9 hPa NNE 26.2 km/h 26.2 km/h 70 % 0 mm
13:50 -16.1 °C -18.9 °C 34279.9 hPa NE 31.4 km/h 38.8 km/h 69 % 0 mm
13:56 -15.9 °C -18.8 °C 34279.9 hPa NE 26.2 km/h 44.1 km/h 69 % 0 mm
14:02 -16 °C -19.1 °C 34279.9 hPa East 15.6 km/h 25.9 km/h 67 % 0 mm
14:08 -16 °C -18.9 °C 34279.9 hPa NE 28.5 km/h 33.6 km/h 68 % 0 mm
14:14 -16 °C -18.9 °C 34279.9 hPa East 10.3 km/h 25.9 km/h 68 % 0 mm
14:20 -15.9 °C -18.8 °C 34279.9 hPa NE 26.2 km/h 31.1 km/h 69 % 0 mm
14:26 -16 °C -18.9 °C 34279.9 hPa NNE 10.3 km/h 33.6 km/h 68 % 0 mm
14:32 -16.1 °C -18.8 °C 34279.9 hPa NNE 10.3 km/h 41.4 km/h 70 % 0 mm
14:38 -16 °C -18.7 °C 34279.9 hPa NNE 7.6 km/h 20.8 km/h 71 % 0 mm
14:44 -15.9 °C -18.7 °C 34279.9 hPa NNE 12.7 km/h 28.5 km/h 69 % 0 mm
14:50 -15.9 °C -18.7 °C 34279.9 hPa NE 7.6 km/h 23.3 km/h 70 % 0 mm
14:56 -15.9 °C -18.8 °C 34279.9 hPa NE 15.6 km/h 44.1 km/h 69 % 0 mm
15:02 -16 °C -18.7 °C 34279.9 hPa NNE 15.6 km/h 20.8 km/h 70 % 0 mm
15:08 -15.9 °C -18.7 °C 34279.9 hPa NE 20.9 km/h 33.6 km/h 69 % 0 mm
15:14 -16 °C -19.1 °C 34279.9 hPa NNE 23 km/h 41.4 km/h 67 % 0 mm
15:20 -16 °C -18.8 °C 34279.9 hPa NE 7.6 km/h 28.5 km/h 69 % 0 mm
15:26 -15.9 °C -18.7 °C 34279.9 hPa NE 41.7 km/h 41.7 km/h 70 % 0 mm
15:32 -15.9 °C -18.7 °C 34279.9 hPa NNW 23 km/h 44.1 km/h 69 % 0 mm
15:38 -15.9 °C -18.9 °C 34279.9 hPa NNE 17.9 km/h 31.1 km/h 68 % 0 mm
15:44 -15.9 °C -18.8 °C 34279.9 hPa NNE 28.5 km/h 44.1 km/h 68 % 0 mm
15:50 -15.8 °C -18.8 °C 34279.9 hPa NE 33.6 km/h 36.2 km/h 68 % 0 mm
15:56 -15.9 °C -18.9 °C 34279.9 hPa NE 17.9 km/h 38.8 km/h 67 % 0 mm
16:02 -15.8 °C -18.8 °C 34279.9 hPa NE 10.3 km/h 31.1 km/h 68 % 0 mm
16:08 -15.7 °C -18.8 °C 34293.4 hPa NNE 15.6 km/h 36.2 km/h 67 % 0 mm
16:14 -15.7 °C -18.8 °C 34293.4 hPa NE 5.1 km/h 31.1 km/h 67 % 0 mm
16:20 -15.8 °C -18.9 °C 34293.4 hPa NE 36.5 km/h 38.8 km/h 67 % 0 mm
16:26 -15.8 °C -18.8 °C 34293.4 hPa ENE 7.6 km/h 28.5 km/h 68 % 0 mm
16:32 -15.8 °C -18.9 °C 34293.4 hPa East 23 km/h 33.6 km/h 67 % 0 mm
16:38 -15.8 °C -18.8 °C 34293.4 hPa NE 15.6 km/h 25.9 km/h 68 % 0 mm
16:44 -15.9 °C -18.9 °C 34293.4 hPa NNE 28.5 km/h 36.2 km/h 67 % 0 mm
16:50 -15.9 °C -18.9 °C 34293.4 hPa NE 10.3 km/h 23.3 km/h 67 % 0 mm
16:56 -15.9 °C -18.8 °C 34293.4 hPa NNE 20.9 km/h 38.8 km/h 68 % 0 mm
17:02 -15.9 °C -18.9 °C 34293.4 hPa NE 26.2 km/h 38.8 km/h 67 % 0 mm
17:08 -15.9 °C -18.8 °C 34293.4 hPa North 10.3 km/h 36.2 km/h 68 % 0 mm
17:14 -15.9 °C -18.9 °C 34293.4 hPa NNE 20.9 km/h 36.2 km/h 68 % 0 mm
17:20 -15.9 °C -19 °C 34303.6 hPa NE 10.3 km/h 36.2 km/h 67 % 0 mm
17:27 -15.9 °C -18.9 °C 34303.6 hPa NNE 26.2 km/h 31.1 km/h 68 % 0 mm
17:33 -15.9 °C -18.9 °C 34303.6 hPa NE 23 km/h 25.9 km/h 68 % 0 mm
17:39 -15.9 °C -18.9 °C 34303.6 hPa NNE 17.9 km/h 36.2 km/h 68 % 0 mm
17:45 -15.9 °C -18.8 °C 34303.6 hPa NNE 10.3 km/h 23.3 km/h 69 % 0 mm
17:51 -15.9 °C -18.9 °C 34313.7 hPa NE 15.6 km/h 28.5 km/h 68 % 0 mm
17:57 -15.9 °C -18.9 °C 34303.6 hPa North 10.3 km/h 33.6 km/h 68 % 0 mm
18:03 -15.9 °C -18.8 °C 34313.7 hPa NNE 20.9 km/h 31.1 km/h 69 % 0 mm
18:09 -16.1 °C -18.9 °C 34313.7 hPa NNE 12.7 km/h 23.3 km/h 69 % 0 mm
18:15 -16.1 °C -18.8 °C 34313.7 hPa North 7.6 km/h 15.6 km/h 70 % 0 mm
18:21 -16.2 °C -18.9 °C 34313.7 hPa NE 12.7 km/h 20.8 km/h 70 % 0 mm
18:27 -16.3 °C -19 °C 34313.7 hPa North 10.3 km/h 18.2 km/h 70 % 0 mm
18:33 -16.3 °C -18.9 °C 34313.7 hPa NE 2.3 km/h 15.6 km/h 71 % 0 mm
18:39 -16.4 °C -18.9 °C 34313.7 hPa NW 2.3 km/h 10.3 km/h 72 % 0 mm
18:45 -16.5 °C -18.9 °C 34313.7 hPa NNW 5.1 km/h 12.9 km/h 73 % 0 mm
18:51 -16.6 °C -18.9 °C 34313.7 hPa North 7.6 km/h 7.7 km/h 73 % 0 mm
18:57 -16.7 °C -19.1 °C 34313.7 hPa NNE 5.1 km/h 10.3 km/h 73 % 0 mm
19:03 -16.8 °C -19.1 °C 34327.3 hPa North 2.3 km/h 12.9 km/h 74 % 0 mm
19:09 -16.8 °C -19.1 °C 34327.3 hPa North 7.6 km/h 7.7 km/h 74 % 0 mm
19:15 -16.9 °C -19.1 °C 34327.3 hPa NE 2.3 km/h 12.9 km/h 75 % 0 mm
19:21 -17 °C -19.2 °C 34327.3 hPa NNE 5.1 km/h 10.3 km/h 75 % 0 mm
19:27 -17.1 °C -19.2 °C 34327.3 hPa Calm   5.1 km/h 76 % 0 mm
19:33 -17.1 °C -19.2 °C 34327.3 hPa North 7.6 km/h 7.7 km/h 76 % 0 mm
19:39 -17.1 °C -19.2 °C 34327.3 hPa Calm   5.1 km/h 76 % 0 mm
19:45 -17.2 °C -19.2 °C 34327.3 hPa NE 7.6 km/h 7.7 km/h 77 % 0 mm
19:51 -17.2 °C -19.2 °C 34327.3 hPa NNE 5.1 km/h 12.9 km/h 77 % 0 mm
19:57 -17.2 °C -19.3 °C 34327.3 hPa NNW 10.3 km/h 12.9 km/h 76 % 0 mm
20:03 -17.2 °C -19.3 °C 34327.3 hPa North 10.3 km/h 10.3 km/h 76 % 0 mm
20:09 -17.1 °C -19.2 °C 34327.3 hPa NNE 7.6 km/h 15.6 km/h 76 % 0 mm
20:15 -17.2 °C -19.3 °C 34327.3 hPa NE 10.3 km/h 15.6 km/h 76 % 0 mm
20:21 -17.1 °C -19.2 °C 34327.3 hPa ENE 2.3 km/h 12.9 km/h 76 % 0 mm
20:27 -17.2 °C -19.3 °C 34327.3 hPa NNE 5.1 km/h 10.3 km/h 76 % 0 mm
20:33 -17.1 °C -19.2 °C 34327.3 hPa NNE 15.6 km/h 15.6 km/h 76 % 0 mm
20:39 -17.1 °C -19.2 °C 34327.3 hPa North 5.1 km/h 23.3 km/h 76 % 0 mm
20:45 -17.1 °C -19.2 °C 34327.3 hPa NE 12.7 km/h 23.3 km/h 76 % 0 mm
20:51 -17.1 °C -19.2 °C 34327.3 hPa NE 15.6 km/h 15.6 km/h 75 % 0 mm
20:57 -17 °C -19.2 °C 34327.3 hPa NNE 15.6 km/h 15.6 km/h 75 % 0 mm
21:03 -17.1 °C -19.2 °C 34327.3 hPa NNE 12.7 km/h 18.2 km/h 75 % 0 mm
21:09 -17.1 °C -19.2 °C 34327.3 hPa North 2.3 km/h 18.2 km/h 76 % 0 mm
21:15 -17.1 °C -19.2 °C 34337.4 hPa NNE 2.3 km/h 18.2 km/h 75 % 0 mm
21:21 -17 °C -19.2 °C 34337.4 hPa NNE 10.3 km/h 20.8 km/h 75 % 0 mm
21:27 -16.9 °C -19.2 °C 34327.3 hPa NNE 23 km/h 23.3 km/h 74 % 0 mm
21:33 -16.9 °C -19.3 °C 34327.3 hPa NE 15.6 km/h 20.8 km/h 73 % 0 mm
21:39 -16.8 °C -19.3 °C 34337.4 hPa NNE 20.9 km/h 28.5 km/h 72 % 0 mm
21:45 -16.9 °C -19.5 °C 34337.4 hPa NE 20.9 km/h 31.1 km/h 71 % 0 mm
21:51 -16.9 °C -19.4 °C 34337.4 hPa NE 20.9 km/h 23.3 km/h 72 % 0 mm
21:57 -16.9 °C -19.3 °C 34337.4 hPa ENE 7.6 km/h 31.1 km/h 73 % 0 mm
22:05 -17 °C -19.4 °C 34337.4 hPa ENE 17.9 km/h 28.5 km/h 73 % 0 mm
22:11 -17.1 °C -19.6 °C 34337.4 hPa NE 23 km/h 33.6 km/h 72 % 0 mm
22:17 -17.2 °C -19.7 °C 34337.4 hPa ENE 15.6 km/h 25.9 km/h 72 % 0 mm
22:23 -17.2 °C -19.8 °C 34337.4 hPa ENE 28.5 km/h 28.5 km/h 71 % 0 mm
22:29 -17.3 °C -20 °C 34337.4 hPa NE 15.6 km/h 28.5 km/h 70 % 0 mm
22:33 -17.3 °C -20 °C 34337.4 hPa NE 20.9 km/h 28.5 km/h 70 % 0 mm
22:39 -17.3 °C -20 °C 34337.4 hPa NE 28.5 km/h 28.5 km/h 70 % 0 mm
22:45 -17.3 °C -20.2 °C 34337.4 hPa NE 12.7 km/h 25.9 km/h 68 % 0 mm
22:49 -17.3 °C -20.3 °C 34347.6 hPa NE 10.3 km/h 31.1 km/h 67 % 0 mm
22:55 -17.4 °C -20.4 °C 34347.6 hPa NE 17.9 km/h 25.9 km/h 67 % 0 mm
23:01 -17.4 °C -20.4 °C 34347.6 hPa ENE 12.7 km/h 20.8 km/h 67 % 0 mm
23:07 -17.4 °C -20.4 °C 34347.6 hPa NE 15.6 km/h 20.8 km/h 67 % 0 mm
23:13 -17.5 °C -20.5 °C 34347.6 hPa NE 20.9 km/h 23.3 km/h 67 % 0 mm
23:19 -17.5 °C -20.6 °C 34347.6 hPa NE 7.6 km/h 25.9 km/h 66 % 0 mm
23:25 -17.6 °C -20.7 °C 34347.6 hPa NE 17.9 km/h 25.9 km/h 66 % 0 mm
23:31 -17.6 °C -20.8 °C 34347.6 hPa NE 10.3 km/h 25.9 km/h 65 % 0 mm
23:37 -17.6 °C -20.8 °C 34347.6 hPa ENE 12.7 km/h 23.3 km/h 65 % 0 mm
23:43 -17.6 °C -20.8 °C 34347.6 hPa NNE 17.9 km/h 28.5 km/h 65 % 0 mm
23:49 -17.6 °C -20.9 °C 34347.6 hPa NE 20.9 km/h 33.6 km/h 64 % 0 mm
23:55 -17.6 °C -20.8 °C 34347.6 hPa NE 26.2 km/h 28.5 km/h 65 % 0 mm
Meteo18
Compliments of Weather Underground - 4 mb

Script developed by  Jim McMurry - jmcmurry@mwt.net Adapted for the template by  Wim van der Kuil - Leuven-Template.eu

You find our weather info also at:

European Weather Network

Weather Underground

Equipment we use:

Weather-station
Davis Vue

Weather-program
Meteobridge

Weather-server
Raspberry PI 2 B+

Provider
1 and 1

Davis Vue

Meteobridge

Raspberry PI 2 B+

1 and 1